Terminal Aerodrome Forecast
Issued by NWS

Home | Current Version | Previous Version | Text Only | Print | Product List | Glossary Off
Versions: 1 2 3 4 5 6 7 8 9 10 11 12 13 14 15 16 17 18 19 20 21

000
FTUS43 KDVN 240520
TAFBRL
TAF
KBRL 240520Z 2406/2506 06014G21KT 6SM BR VCSH BKN009 OVC040
      TEMPO 2406/2408 2SM SHRA OVC005
     FM241500 01011KT 4SM BR VCSH OVC009
     FM242000 34012KT 5SM BR VCSH OVC012=

USA.gov is the U.S. government's official web portal to all federal, state and local government web resources and services.